CheckWX is a tool to help pilots better visualize weather data.  It is not intended as a substitute for an official pre-flight weather briefing.

12:24:29 UTC

LIBD TAF
Bari Karol Wojtyła Airport
Bari, Italy
TAF LIBD 221100Z 2212/2312 01014KT CAVOK BECMG 2218/2220 28008KT BECMG 2308/2311 01012KT

Mar-22@
12:00 UTC

Mar-22 @ 12:00 UTC

Mar-22@
18:00 UTC

Mar-22 @ 18:00 UTC

TAF LIBD 221100Z 2212/2312 01014KT CAVOK
Wind
  • 010° at 14 KTS
Conditions
No significant weather
Cloud Levels
  • No significant clouds

Mar-22@
18:00 UTC

Mar-22 @ 18:00 UTC

Mar-23@
08:00 UTC

Mar-23 @ 08:00 UTC

BECMG 2218/2220 28008KT

Becoming

Becoming Conditions expected by Fri, Mar 22, 2019 @ 20:00 UTC

Wind
  • 280° at 8 KTS
Conditions
No significant weather
Cloud Levels
  • No significant clouds

Mar-23@
08:00 UTC

Mar-23 @ 08:00 UTC

Mar-23@
12:00 UTC

Mar-23 @ 12:00 UTC

BECMG 2308/2311 01012KT

Becoming

Becoming Conditions expected by Sat, Mar 23, 2019 @ 11:00 UTC

Wind
  • 010° at 12 KTS
Conditions
No significant weather
Cloud Levels
  • No significant clouds